Terminal Aerodrome Forecast
Issued by NWS Brownsville, TX

Home | Current Version | Previous Version | Text Only | Print | Product List | Glossary On
Versions: 1 2 3 4 5 6 7 8 9 10 11 12 13 14 15 16 17 18
000
FTUS44 KBRO 040531
TAFHRL
TAF
KHRL 040531Z 0406/0506 15010KT P6SM BKN012
     FM041300 15013G18KT P6SM BKN010
     FM041500 17018G25KT P6SM SCT030
     FM050100 15010KT 5SM BR BKN015=

USA.gov is the U.S. government's official web portal to all federal, state and local government web resources and services.